Time;durP1;ratioP1;P1;durP2;ratioP2;P2;SDS_P1;SDS_P2;PMS_P1;PMS_P2;Temp;Humidity;BMP_temperature;BMP_pressure;BME280_temperature;BME280_humidity;BME280_pressure;Samples;Min_cycle;Max_cycle;Signal;HPM_P1;HPM_P2
2023/03/20 00:02:20;;;;;;;1.90;1.30;;;18.90;55.30;;;;;;6297180;28;20085;-72
2023/03/20 00:05:23;;;;;;;1.52;1.30;;;18.80;54.50;;;;;;6279370;28;20040;-73
2023/03/20 00:08:24;;;;;;;1.58;1.02;;;18.90;54.60;;;;;;6279682;28;20111;-72
2023/03/20 00:11:46;;;;;;;2.28;1.30;;;18.80;54.50;;;;;;6297271;28;20389;-72
2023/03/20 00:14:47;;;;;;;1.80;1.25;;;18.80;54.50;;;;;;6295997;28;20409;-72
2023/03/20 00:17:48;;;;;;;1.50;1.25;;;18.80;54.50;;;;;;6279105;28;20032;-73
2023/03/20 00:20:50;;;;;;;1.30;1.08;;;18.80;54.50;;;;;;6264023;28;20025;-72
2023/03/20 00:23:50;;;;;;;2.47;1.50;;;18.90;54.60;;;;;;6272247;28;20021;-74
2023/03/20 00:26:52;;;;;;;1.58;1.05;;;18.80;54.50;;;;;;6276184;28;20029;-73
2023/03/20 00:29:53;;;;;;;1.63;1.30;;;18.80;54.60;;;;;;6296730;28;20029;-73
2023/03/20 00:32:56;;;;;;;2.83;1.33;;;18.90;54.60;;;;;;6296670;28;20106;-72
2023/03/20 00:35:57;;;;;;;1.95;1.08;;;18.80;54.50;;;;;;6293040;28;20020;-73
2023/03/20 00:38:58;;;;;;;1.30;1.10;;;18.80;54.50;;;;;;6296970;28;20043;-73
2023/03/20 00:42:05;;;;;;;1.70;1.10;;;18.90;54.60;;;;;;6278522;28;20056;-72
2023/03/20 00:45:13;;;;;;;2.25;1.27;;;18.90;54.60;;;;;;6296177;28;20493;-72
2023/03/20 00:48:15;;;;;;;1.42;1.10;;;18.80;54.60;;;;;;6278670;28;20024;-73
2023/03/20 00:51:17;;;;;;;2.05;1.30;;;18.80;54.60;;;;;;6278298;28;20102;-72
2023/03/20 00:54:17;;;;;;;2.28;1.30;;;18.80;54.50;;;;;;6296224;28;20027;-72
2023/03/20 00:57:47;;;;;;;1.23;1.10;;;18.80;54.50;;;;;;6296061;28;20028;-73
2023/03/20 01:00:48;;;;;;;1.30;1.02;;;18.80;54.60;;;;;;6277035;28;20036;-73
2023/03/20 01:03:48;;;;;;;1.45;0.98;;;18.80;54.50;;;;;;6278039;28;20031;-73
2023/03/20 01:06:49;;;;;;;1.30;1.00;;;18.80;54.50;;;;;;6278227;28;20024;-72
2023/03/20 01:09:51;;;;;;;1.23;1.00;;;18.80;54.50;;;;;;6296225;28;20048;-72
2023/03/20 01:12:52;;;;;;;1.83;1.02;;;18.80;54.60;;;;;;6270789;28;20108;-73
2023/03/20 01:15:54;;;;;;;1.77;1.10;;;18.80;54.60;;;;;;6253190;28;20047;-72
2023/03/20 01:18:55;;;;;;;1.83;1.00;;;18.80;54.50;;;;;;6276259;28;20029;-72
2023/03/20 01:21:56;;;;;;;2.25;1.38;;;18.80;54.60;;;;;;6277384;28;20083;-73
2023/03/20 01:24:57;;;;;;;1.38;1.00;;;18.80;54.60;;;;;;6277480;28;20104;-73
2023/03/20 01:27:58;;;;;;;1.50;1.10;;;18.80;54.60;;;;;;6277418;28;20031;-72
2023/03/20 01:30:59;;;;;;;2.92;1.30;;;18.80;54.60;;;;;;6295153;28;20044;-73
2023/03/20 01:34:01;;;;;;;1.40;1.00;;;18.80;54.60;;;;;;6292104;28;20021;-73
2023/03/20 01:37:03;;;;;;;1.35;0.93;;;18.80;54.60;;;;;;6269026;28;20192;-72
2023/03/20 01:40:15;;;;;;;1.50;1.20;;;18.80;54.60;;;;;;6295330;28;20017;-73
2023/03/20 01:43:19;;;;;;;1.10;0.98;;;18.80;54.60;;;;;;6294660;28;20051;-72
2023/03/20 01:46:30;;;;;;;1.30;0.95;;;18.80;54.60;;;;;;6277124;28;20137;-73
2023/03/20 01:50:10;;;;;;;1.30;1.00;;;18.80;54.60;;;;;;6294906;28;20035;-72
2023/03/20 01:53:22;;;;;;;2.13;1.00;;;18.80;54.60;;;;;;6269482;28;20103;-74
2023/03/20 01:56:23;;;;;;;1.20;1.00;;;18.80;54.60;;;;;;6294686;28;20024;-73
2023/03/20 01:59:47;;;;;;;1.20;1.10;;;18.80;54.60;;;;;;6277412;28;20078;-73
2023/03/20 02:02:48;;;;;;;1.45;1.00;;;18.80;54.60;;;;;;6294084;28;20755;-72
2023/03/20 02:05:49;;;;;;;1.00;0.88;;;18.80;54.60;;;;;;6276683;28;20454;-72
2023/03/20 02:08:52;;;;;;;1.30;0.73;;;18.80;54.60;;;;;;6276319;28;20024;-73
2023/03/20 02:11:55;;;;;;;1.08;0.98;;;18.80;54.60;;;;;;6276248;28;20028;-72
2023/03/20 02:14:56;;;;;;;1.35;0.88;;;18.80;54.60;;;;;;6276653;28;20028;-72
2023/03/20 02:17:57;;;;;;;2.00;1.00;;;18.80;54.60;;;;;;6276065;28;20044;-70
2023/03/20 02:21:09;;;;;;;2.30;0.93;;;18.80;54.60;;;;;;6294548;28;20035;-73
2023/03/20 02:24:47;;;;;;;1.27;0.80;;;18.80;54.60;;;;;;6295231;28;20020;-72
2023/03/20 02:28:21;;;;;;;1.00;0.80;;;18.80;54.70;;;;;;6277597;28;20029;-72
2023/03/20 02:31:43;;;;;;;1.00;0.90;;;18.80;54.60;;;;;;6295113;28;20029;-73
2023/03/20 02:34:53;;;;;;;1.10;0.98;;;18.80;54.60;;;;;;6276980;28;20029;-72
2023/03/20 02:38:15;;;;;;;1.85;1.33;;;18.80;54.60;;;;;;6276934;28;20162;-72
2023/03/20 02:41:40;;;;;;;0.85;0.80;;;18.80;54.60;;;;;;6256295;28;20033;-73
2023/03/20 02:45:22;;;;;;;0.90;0.82;;;18.80;54.60;;;;;;6294731;28;20036;-73
2023/03/20 02:48:47;;;;;;;0.90;0.80;;;18.80;54.60;;;;;;6276610;28;20489;-72
2023/03/20 02:52:08;;;;;;;1.83;0.90;;;18.80;54.60;;;;;;6276542;28;20025;-72
2023/03/20 02:55:30;;;;;;;1.63;0.90;;;18.80;54.60;;;;;;6294781;28;20017;-72
2023/03/20 02:58:45;;;;;;;1.30;0.90;;;18.80;54.60;;;;;;6294488;28;20039;-72
2023/03/20 03:01:55;;;;;;;1.23;0.70;;;18.80;54.60;;;;;;6294689;28;20017;-72
2023/03/20 03:05:00;;;;;;;1.63;0.80;;;18.80;54.60;;;;;;6276941;28;20458;-72
2023/03/20 03:08:03;;;;;;;0.80;0.60;;;18.80;54.60;;;;;;6276505;28;20531;-73
2023/03/20 03:11:07;;;;;;;1.13;0.82;;;18.80;54.60;;;;;;6293052;28;20477;-72
2023/03/20 03:14:15;;;;;;;0.98;0.77;;;18.80;54.60;;;;;;6276570;28;20082;-72
2023/03/20 03:17:19;;;;;;;0.60;0.60;;;18.80;54.60;;;;;;6294527;28;20077;-72
2023/03/20 03:20:28;;;;;;;0.80;0.70;;;18.80;54.60;;;;;;6276317;28;20381;-72
2023/03/20 03:23:31;;;;;;;1.45;1.10;;;18.80;54.60;;;;;;6276247;28;20147;-72
2023/03/20 03:26:38;;;;;;;1.15;0.90;;;18.80;54.70;;;;;;6276546;28;20021;-72
2023/03/20 03:29:39;;;;;;;0.60;0.60;;;18.80;54.70;;;;;;6294112;28;20099;-73
2023/03/20 03:32:50;;;;;;;0.70;0.70;;;18.80;54.60;;;;;;6294429;28;20027;-72
2023/03/20 03:35:58;;;;;;;0.82;0.70;;;18.80;54.70;;;;;;6276716;28;20071;-72
2023/03/20 03:39:20;;;;;;;1.02;0.80;;;18.80;54.60;;;;;;6276238;28;20020;-72
2023/03/20 03:42:21;;;;;;;0.82;0.80;;;18.80;54.60;;;;;;6293829;28;20429;-72
2023/03/20 03:45:34;;;;;;;1.40;0.80;;;18.80;54.70;;;;;;6275924;28;20044;-72
2023/03/20 03:48:41;;;;;;;1.25;0.85;;;18.80;54.60;;;;;;6275953;28;20089;-72
2023/03/20 03:51:47;;;;;;;1.10;0.77;;;18.80;54.60;;;;;;6294113;28;20366;-72
2023/03/20 03:55:01;;;;;;;0.88;0.68;;;18.80;54.60;;;;;;6293760;28;20033;-72
2023/03/20 03:58:11;;;;;;;0.67;0.63;;;18.80;54.70;;;;;;6276230;28;20021;-71
2023/03/20 04:01:13;;;;;;;1.35;0.70;;;18.80;54.60;;;;;;6277690;28;20021;-72
2023/03/20 04:04:15;;;;;;;1.25;0.90;;;18.80;54.60;;;;;;6280507;28;20078;-72
2023/03/20 04:07:16;;;;;;;0.80;0.80;;;18.80;54.60;;;;;;6280470;28;20051;-72
2023/03/20 04:10:17;;;;;;;0.68;0.57;;;18.80;54.60;;;;;;6280290;28;20028;-72
2023/03/20 04:13:17;;;;;;;1.15;0.65;;;18.80;54.70;;;;;;6298017;28;20036;-72
2023/03/20 04:16:20;;;;;;;1.05;0.80;;;18.80;54.60;;;;;;6280326;28;20020;-72
2023/03/20 04:19:21;;;;;;;1.00;0.68;;;18.80;54.60;;;;;;6280282;28;20036;-72
2023/03/20 04:22:21;;;;;;;1.10;0.93;;;18.80;54.60;;;;;;6279778;28;20371;-72
2023/03/20 04:25:25;;;;;;;1.00;0.75;;;18.80;54.60;;;;;;6279853;28;20475;-73
2023/03/20 04:28:26;;;;;;;1.17;0.80;;;18.80;54.60;;;;;;6279771;28;20473;-72
2023/03/20 04:31:27;;;;;;;0.90;0.80;;;18.80;54.60;;;;;;6279815;28;20035;-72
2023/03/20 04:34:28;;;;;;;0.70;0.68;;;18.80;54.70;;;;;;6279794;28;20520;-72
2023/03/20 04:37:29;;;;;;;0.65;0.57;;;18.80;54.70;;;;;;6279995;28;20020;-72
2023/03/20 04:40:30;;;;;;;2.88;0.80;;;18.80;54.60;;;;;;6297419;28;20017;-72
2023/03/20 04:43:31;;;;;;;0.73;0.60;;;18.80;54.60;;;;;;6279257;28;20068;-72
2023/03/20 04:46:31;;;;;;;1.52;0.82;;;18.80;54.60;;;;;;6279625;28;20032;-72
2023/03/20 04:49:32;;;;;;;0.75;0.70;;;18.80;54.70;;;;;;6279630;28;20025;-73
2023/03/20 04:52:33;;;;;;;1.42;0.88;;;18.80;54.60;;;;;;6279078;28;20128;-72
2023/03/20 04:55:34;;;;;;;0.93;0.70;;;18.80;54.70;;;;;;6297484;28;20025;-72
2023/03/20 04:58:35;;;;;;;0.60;0.57;;;18.80;54.70;;;;;;6297307;28;20183;-72
2023/03/20 05:01:36;;;;;;;0.93;0.70;;;18.80;54.70;;;;;;6296950;28;20013;-71
2023/03/20 05:04:36;;;;;;;0.60;0.52;;;18.80;54.70;;;;;;6278810;28;20024;-71
2023/03/20 05:07:37;;;;;;;0.52;0.52;;;18.80;54.70;;;;;;6297064;28;20060;-72
2023/03/20 05:10:38;;;;;;;0.52;0.52;;;18.80;54.70;;;;;;6296843;28;20025;-72
2023/03/20 05:13:38;;;;;;;0.65;0.65;;;18.80;54.70;;;;;;6277858;28;20036;-71
2023/03/20 05:16:39;;;;;;;0.88;0.60;;;18.80;54.70;;;;;;6296635;28;20453;-72
2023/03/20 05:19:41;;;;;;;0.70;0.63;;;18.80;54.70;;;;;;6278744;28;20508;-72
2023/03/20 05:22:42;;;;;;;1.42;0.60;;;18.80;54.60;;;;;;6296317;28;20028;-72
2023/03/20 05:25:44;;;;;;;1.15;0.68;;;18.80;54.60;;;;;;6278385;28;20039;-72
2023/03/20 05:28:44;;;;;;;1.23;0.70;;;18.80;54.60;;;;;;6278343;28;20021;-72
2023/03/20 05:31:45;;;;;;;1.65;0.98;;;18.80;54.60;;;;;;6296165;28;20045;-72
2023/03/20 05:34:46;;;;;;;0.68;0.60;;;18.80;54.60;;;;;;6295828;28;20083;-72
2023/03/20 05:37:47;;;;;;;0.90;0.80;;;18.80;54.60;;;;;;6278493;28;20021;-72
2023/03/20 05:40:48;;;;;;;1.63;0.73;;;18.80;54.60;;;;;;6295887;28;20016;-71
2023/03/20 05:43:49;;;;;;;1.10;0.80;;;18.80;54.60;;;;;;6295441;28;20507;-71
2023/03/20 05:46:50;;;;;;;0.52;0.52;;;18.80;54.60;;;;;;6296260;28;20066;-72
2023/03/20 05:49:50;;;;;;;0.70;0.65;;;18.80;54.60;;;;;;6295602;28;20481;-71
2023/03/20 05:52:51;;;;;;;0.70;0.50;;;18.80;54.60;;;;;;6277495;28;20032;-72
2023/03/20 05:55:51;;;;;;;1.13;0.70;;;18.80;54.60;;;;;;6295768;28;20013;-72
2023/03/20 05:58:52;;;;;;;0.60;0.60;;;18.80;54.60;;;;;;6295844;28;20028;-71
2023/03/20 06:01:53;;;;;;;1.10;0.80;;;18.80;54.60;;;;;;6277325;28;20528;-72
2023/03/20 06:04:53;;;;;;;1.17;0.90;;;18.80;54.60;;;;;;6295131;28;20370;-72
2023/03/20 06:07:54;;;;;;;0.65;0.50;;;18.80;54.60;;;;;;6295393;28;20044;-72
2023/03/20 06:10:55;;;;;;;1.15;0.60;;;18.80;54.60;;;;;;6295313;28;20023;-72
2023/03/20 06:13:57;;;;;;;1.17;0.70;;;18.80;54.60;;;;;;6295025;28;20423;-72
2023/03/20 06:16:58;;;;;;;0.57;0.50;;;18.80;54.60;;;;;;6295227;28;20129;-72
2023/03/20 06:19:58;;;;;;;0.88;0.52;;;18.80;54.60;;;;;;6277226;28;20025;-72
2023/03/20 06:22:59;;;;;;;0.73;0.60;;;18.80;54.60;;;;;;6295022;28;20032;-72
2023/03/20 06:26:00;;;;;;;1.23;0.70;;;18.80;54.60;;;;;;6294733;28;20453;-72
2023/03/20 06:29:00;;;;;;;0.90;0.60;;;18.80;54.60;;;;;;6294967;28;20370;-73
2023/03/20 06:32:01;;;;;;;1.10;0.68;;;18.90;54.70;;;;;;6294745;28;20017;-72
2023/03/20 06:35:04;;;;;;;0.85;0.75;;;18.90;54.70;;;;;;6276981;28;20404;-72
2023/03/20 06:38:05;;;;;;;0.80;0.60;;;18.90;54.70;;;;;;6294522;28;20048;-72
2023/03/20 06:41:06;;;;;;;1.27;0.85;;;18.90;54.70;;;;;;6276777;28;20097;-73
2023/03/20 06:44:06;;;;;;;1.02;0.70;;;18.80;54.60;;;;;;6283041;28;20032;-73
2023/03/20 06:47:07;;;;;;;0.90;0.80;;;18.80;54.60;;;;;;6267340;28;20051;-74
2023/03/20 06:50:09;;;;;;;0.73;0.60;;;18.90;54.70;;;;;;6299540;28;20020;-73
2023/03/20 06:53:09;;;;;;;0.50;0.50;;;18.90;54.70;;;;;;6318476;28;20032;-73
2023/03/20 06:56:10;;;;;;;2.05;0.65;;;18.90;54.70;;;;;;6290723;28;20027;-73
2023/03/20 06:59:11;;;;;;;0.75;0.63;;;18.90;54.70;;;;;;6284762;28;20021;-73
2023/03/20 07:02:12;;;;;;;0.70;0.70;;;18.90;54.70;;;;;;6302698;28;20070;-73
2023/03/20 07:05:13;;;;;;;1.13;0.90;;;18.80;54.60;;;;;;6307588;28;20025;-73
2023/03/20 07:08:14;;;;;;;0.60;0.45;;;18.90;54.70;;;;;;6302189;28;20665;-73
2023/03/20 07:11:15;;;;;;;0.93;0.68;;;18.90;54.70;;;;;;6286232;28;20074;-73
2023/03/20 07:14:15;;;;;;;0.52;0.50;;;18.90;54.70;;;;;;6277118;28;20031;-73
2023/03/20 07:17:16;;;;;;;0.80;0.60;;;18.90;54.70;;;;;;6290208;28;20025;-73
2023/03/20 07:20:17;;;;;;;1.05;0.70;;;18.90;54.70;;;;;;6283771;28;20024;-72
2023/03/20 07:23:18;;;;;;;0.70;0.70;;;18.90;54.70;;;;;;6320428;28;20032;-77
2023/03/20 07:26:19;;;;;;;0.60;0.60;;;18.90;54.70;;;;;;6302018;28;20035;-67
2023/03/20 07:29:20;;;;;;;0.63;0.60;;;18.90;54.70;;;;;;6320604;28;20027;-70
2023/03/20 07:32:20;;;;;;;0.80;0.60;;;18.90;54.70;;;;;;6320265;28;20432;-70
2023/03/20 07:35:21;;;;;;;0.45;0.45;;;18.90;54.70;;;;;;6303175;28;20404;-71
2023/03/20 07:38:22;;;;;;;0.85;0.80;;;18.90;54.70;;;;;;6317759;28;20497;-70
2023/03/20 07:41:23;;;;;;;0.45;0.45;;;18.90;54.80;;;;;;6300372;28;20082;-71
2023/03/20 07:44:23;;;;;;;1.23;1.00;;;18.90;54.70;;;;;;6299948;28;20444;-70
2023/03/20 07:47:24;;;;;;;1.48;0.73;;;18.90;54.80;;;;;;6300124;28;20029;-71
2023/03/20 07:50:25;;;;;;;1.30;0.80;;;18.90;54.70;;;;;;6281914;28;20107;-71
2023/03/20 07:53:25;;;;;;;0.73;0.70;;;18.90;54.70;;;;;;6282175;28;20021;-71
2023/03/20 07:56:26;;;;;;;0.82;0.70;;;18.90;54.70;;;;;;6281687;28;20107;-71
2023/03/20 07:59:26;;;;;;;1.40;0.73;;;18.90;54.70;;;;;;6281976;28;20028;-70
2023/03/20 08:02:28;;;;;;;1.08;0.60;;;18.90;54.70;;;;;;6281595;28;20024;-71
2023/03/20 08:05:28;;;;;;;0.85;0.73;;;18.90;54.80;;;;;;6281723;28;20025;-72
2023/03/20 08:08:29;;;;;;;1.38;0.70;;;18.90;54.70;;;;;;6274780;28;20029;-71
2023/03/20 08:11:30;;;;;;;0.73;0.70;;;18.90;54.70;;;;;;6273478;28;20087;-71
2023/03/20 08:14:31;;;;;;;1.02;0.73;;;18.90;54.70;;;;;;6273565;28;20025;-71
2023/03/20 08:17:31;;;;;;;1.63;0.80;;;18.90;54.70;;;;;;6256802;28;20455;-71
2023/03/20 08:20:32;;;;;;;1.52;0.88;;;18.90;54.70;;;;;;6274413;28;20021;-72
2023/03/20 08:23:33;;;;;;;0.45;0.45;;;18.90;54.80;;;;;;6274555;28;20036;-71
2023/03/20 08:26:33;;;;;;;0.73;0.70;;;18.90;54.70;;;;;;6260741;28;20422;-71
2023/03/20 08:29:34;;;;;;;0.75;0.60;;;18.90;54.70;;;;;;6299016;28;20032;-70
2023/03/20 08:32:36;;;;;;;1.00;0.90;;;18.90;54.70;;;;;;6280999;28;20062;-70
2023/03/20 08:35:37;;;;;;;0.70;0.68;;;18.90;54.70;;;;;;6299299;28;20024;-72
2023/03/20 08:38:38;;;;;;;0.75;0.65;;;18.90;54.70;;;;;;6299158;28;20017;-72
2023/03/20 08:41:40;;;;;;;0.80;0.70;;;18.90;55.40;;;;;;6280977;28;20047;-72
2023/03/20 08:44:41;;;;;;;1.23;0.70;;;18.90;54.70;;;;;;6299004;28;20052;-72
2023/03/20 08:47:42;;;;;;;0.80;0.70;;;18.90;54.70;;;;;;6297316;28;20025;-72
2023/03/20 08:50:43;;;;;;;0.70;0.68;;;18.90;54.70;;;;;;6298548;28;20035;-72
2023/03/20 08:53:44;;;;;;;0.88;0.73;;;18.90;54.70;;;;;;6318095;28;20028;-71
2023/03/20 08:56:45;;;;;;;0.68;0.65;;;18.90;54.70;;;;;;6305596;28;20034;-71
2023/03/20 08:59:46;;;;;;;1.27;0.88;;;18.90;54.70;;;;;;6323432;28;20024;-72
2023/03/20 09:02:47;;;;;;;0.95;0.80;;;18.90;54.80;;;;;;6295602;28;20047;-72
2023/03/20 09:05:50;;;;;;;0.80;0.70;;;18.90;54.80;;;;;;6303344;28;20032;-72
2023/03/20 09:08:51;;;;;;;1.23;0.90;;;18.90;54.70;;;;;;6323457;28;20405;-72
2023/03/20 09:11:52;;;;;;;1.23;0.85;;;18.90;54.70;;;;;;6323123;28;20071;-72
2023/03/20 09:14:53;;;;;;;9.55;1.00;;;18.90;54.70;;;;;;6305179;28;20123;-72
2023/03/20 09:17:54;;;;;;;0.98;0.70;;;18.90;54.70;;;;;;6296289;28;20020;-72
2023/03/20 09:20:55;;;;;;;1.10;0.80;;;18.90;54.70;;;;;;6279975;28;20397;-72
2023/03/20 09:23:56;;;;;;;0.65;0.65;;;18.90;54.70;;;;;;6313790;28;20020;-71
2023/03/20 09:26:57;;;;;;;0.73;0.73;;;18.90;54.60;;;;;;6322939;28;20024;-71
2023/03/20 09:29:58;;;;;;;0.80;0.77;;;18.90;54.60;;;;;;6298048;28;20055;-71
2023/03/20 09:32:58;;;;;;;0.95;0.75;;;18.90;54.70;;;;;;6275715;28;20038;-72
2023/03/20 09:35:59;;;;;;;0.85;0.80;;;18.90;54.60;;;;;;6279364;28;20727;-71
2023/03/20 09:39:00;;;;;;;1.08;0.90;;;18.90;54.70;;;;;;6297674;28;20025;-71
2023/03/20 09:42:33;;;;;;;1.35;0.80;;;18.90;54.70;;;;;;6297221;28;20052;-72
2023/03/20 09:45:46;;;;;;;1.02;0.82;;;18.90;54.70;;;;;;6297019;28;20128;-71
2023/03/20 09:48:48;;;;;;;1.52;0.98;;;18.90;54.70;;;;;;6296942;28;20024;-71
2023/03/20 09:51:59;;;;;;;1.40;0.80;;;18.90;54.70;;;;;;6297077;28;20021;-71
2023/03/20 09:55:06;;;;;;;1.65;0.80;;;18.90;54.70;;;;;;6279064;28;20025;-71
2023/03/20 09:58:27;;;;;;;1.33;0.93;;;18.90;54.70;;;;;;6296860;28;20016;-71
2023/03/20 10:02:05;;;;;;;3.95;0.82;;;18.90;54.70;;;;;;6296688;28;20025;-70
2023/03/20 10:05:15;;;;;;;1.65;1.08;;;18.90;54.70;;;;;;6294967;28;20043;-71
2023/03/20 10:08:28;;;;;;;1.17;0.90;;;18.90;54.70;;;;;;6296485;28;20020;-71
2023/03/20 10:11:43;;;;;;;1.67;1.00;;;18.90;55.40;;;;;;6278654;28;20070;-71
2023/03/20 10:14:52;;;;;;;1.08;0.93;;;18.90;54.70;;;;;;6292295;28;20546;-71
2023/03/20 10:18:01;;;;;;;1.30;0.82;;;18.90;54.70;;;;;;6254154;28;20039;-71
2023/03/20 10:21:27;;;;;;;0.80;0.60;;;18.90;54.80;;;;;;6296368;28;20551;-71
2023/03/20 10:24:36;;;;;;;0.68;0.68;;;18.90;54.80;;;;;;6309314;28;20016;-71
2023/03/20 10:27:52;;;;;;;1.13;0.80;;;18.90;54.70;;;;;;6302543;28;20031;-73
2023/03/20 10:31:30;;;;;;;1.15;0.70;;;18.90;54.80;;;;;;6280064;28;20028;-68
2023/03/20 10:34:58;;;;;;;1.10;0.77;;;18.90;54.70;;;;;;6305538;28;20480;-69
2023/03/20 10:38:25;;;;;;;1.77;0.80;;;18.90;54.70;;;;;;6302712;28;20595;-69
2023/03/20 10:41:35;;;;;;;1.30;1.10;;;18.90;54.80;;;;;;6302882;28;20028;-73
2023/03/20 10:44:39;;;;;;;1.17;0.90;;;18.90;54.80;;;;;;6316267;28;20514;-72
2023/03/20 10:47:44;;;;;;;1.45;0.90;;;18.90;54.80;;;;;;6297082;28;20021;-71
2023/03/20 10:51:09;;;;;;;1.13;0.90;;;18.90;54.70;;;;;;6290924;28;20031;-72
2023/03/20 10:54:23;;;;;;;1.47;1.00;;;18.90;54.70;;;;;;6288557;28;20040;-72
2023/03/20 10:57:28;;;;;;;2.30;1.20;;;18.90;54.70;;;;;;6277683;28;20309;-72
2023/03/20 11:00:28;;;;;;;2.28;1.20;;;18.90;54.70;;;;;;6293564;28;20025;-68
2023/03/20 11:03:31;;;;;;;2.20;1.20;;;18.90;54.60;;;;;;6295395;28;20455;-71
2023/03/20 11:06:48;;;;;;;1.70;1.25;;;18.90;54.70;;;;;;6295716;28;20025;-71
2023/03/20 11:10:04;;;;;;;4.32;1.25;;;18.90;54.60;;;;;;6295449;28;20482;-70
2023/03/20 11:13:34;;;;;;;1.77;1.08;;;18.90;54.60;;;;;;6295145;28;20025;-70
2023/03/20 11:16:37;;;;;;;2.72;1.35;;;18.90;54.60;;;;;;6293923;28;20031;-71
2023/03/20 11:19:40;;;;;;;2.28;1.48;;;18.90;54.60;;;;;;6295593;28;20025;-70
2023/03/20 11:22:41;;;;;;;1.45;1.20;;;18.90;54.60;;;;;;6295275;28;20032;-69
2023/03/20 11:25:57;;;;;;;3.25;1.52;;;18.90;54.60;;;;;;6294405;28;20146;-74
2023/03/20 11:28:59;;;;;;;2.05;1.17;;;18.90;54.70;;;;;;6294446;28;20033;-73
2023/03/20 11:32:13;;;;;;;2.20;1.30;;;18.90;54.70;;;;;;6268700;28;20033;-73
2023/03/20 11:35:25;;;;;;;1.92;1.27;;;18.90;54.70;;;;;;6268420;28;20033;-73
2023/03/20 11:38:30;;;;;;;3.28;1.30;;;18.90;54.70;;;;;;6293404;28;20071;-73
2023/03/20 11:41:31;;;;;;;2.25;1.40;;;18.90;54.70;;;;;;6294159;28;20028;-73
2023/03/20 11:44:34;;;;;;;4.93;1.63;;;18.90;54.70;;;;;;6293597;28;20037;-74
2023/03/20 11:47:35;;;;;;;2.25;1.30;;;18.90;54.60;;;;;;6311856;28;20111;-73
2023/03/20 11:50:41;;;;;;;2.80;1.40;;;18.90;54.70;;;;;;6318812;28;20028;-73
2023/03/20 11:53:55;;;;;;;1.92;1.20;;;18.90;54.60;;;;;;6301179;28;20504;-72
2023/03/20 11:56:58;;;;;;;1.67;1.17;;;18.90;54.60;;;;;;6299567;28;20073;-72
2023/03/20 12:00:14;;;;;;;2.50;1.42;;;18.90;54.60;;;;;;6300333;28;20025;-72
2023/03/20 12:03:40;;;;;;;3.25;1.25;;;18.90;54.60;;;;;;6305570;28;20055;-71
2023/03/20 12:07:26;;;;;;;2.08;1.17;;;18.90;54.60;;;;;;6318120;28;20111;-71
2023/03/20 12:10:33;;;;;;;1.27;1.10;;;18.90;54.60;;;;;;6266084;28;20478;-72
2023/03/20 12:13:38;;;;;;;2.38;1.30;;;18.90;55.30;;;;;;6299975;28;20020;-71
2023/03/20 12:16:40;;;;;;;3.08;1.60;;;18.90;54.70;;;;;;6304671;28;20025;-71
2023/03/20 12:19:43;;;;;;;2.92;1.35;;;18.90;54.70;;;;;;6293387;28;20501;-71
2023/03/20 12:22:56;;;;;;;2.95;1.30;;;18.90;54.70;;;;;;6295148;28;20032;-71
2023/03/20 12:26:21;;;;;;;2.05;1.20;;;18.90;54.70;;;;;;6301660;28;20032;-71
2023/03/20 12:29:30;;;;;;;1.55;1.10;;;18.90;54.70;;;;;;6304172;28;20411;-71
2023/03/20 12:32:46;;;;;;;1.65;1.05;;;18.90;54.70;;;;;;6305045;28;20038;-71
2023/03/20 12:35:50;;;;;;;2.28;1.30;;;18.90;54.70;;;;;;6277088;28;20497;-71
2023/03/20 12:38:51;;;;;;;1.95;1.25;;;18.90;54.70;;;;;;6280896;28;20393;-70
2023/03/20 12:42:17;;;;;;;2.63;1.40;;;18.90;54.70;;;;;;6282063;28;20083;-73
2023/03/20 12:45:25;;;;;;;1.40;1.00;;;18.90;54.70;;;;;;6290338;28;20128;-71
2023/03/20 12:48:48;;;;;;;1.65;1.00;;;18.90;54.70;;;;;;6301900;28;20495;-70
2023/03/20 12:52:10;;;;;;;2.85;1.35;;;18.90;54.70;;;;;;6296613;28;20432;-71
2023/03/20 12:55:24;;;;;;;2.55;1.40;;;18.90;54.70;;;;;;6277312;28;20032;-71
2023/03/20 12:58:50;;;;;;;2.22;1.20;;;18.90;54.70;;;;;;6313499;28;20027;-71
2023/03/20 13:02:32;;;;;;;2.03;1.15;;;18.90;54.70;;;;;;6302329;28;20028;-71
2023/03/20 13:05:44;;;;;;;2.17;1.20;;;18.90;54.70;;;;;;6285022;28;20131;-71
2023/03/20 13:09:14;;;;;;;2.72;1.00;;;18.90;54.70;;;;;;6321249;28;20024;-71
2023/03/20 13:12:21;;;;;;;1.52;1.23;;;18.90;54.70;;;;;;6303286;28;20024;-71
2023/03/20 13:15:30;;;;;;;4.45;1.33;;;18.90;54.70;;;;;;6320991;28;20020;-69
2023/03/20 13:18:49;;;;;;;2.17;1.17;;;18.90;54.70;;;;;;6307040;28;20031;-69
2023/03/20 13:22:01;;;;;;;1.95;1.23;;;18.90;54.70;;;;;;6273458;28;20116;-69
2023/03/20 13:25:12;;;;;;;1.83;1.02;;;18.90;54.70;;;;;;6295355;28;20028;-69
2023/03/20 13:28:44;;;;;;;2.10;1.17;;;18.90;54.70;;;;;;6292821;28;20016;-70
2023/03/20 13:32:11;;;;;;;2.35;1.20;;;18.90;54.70;;;;;;6277972;28;20389;-70
2023/03/20 13:35:29;;;;;;;1.65;1.13;;;18.90;54.70;;;;;;6265705;28;20509;-70
2023/03/20 13:38:35;;;;;;;2.35;1.15;;;18.90;54.70;;;;;;6277176;28;20025;-71
2023/03/20 13:41:36;;;;;;;2.47;1.40;;;18.90;54.70;;;;;;6295803;28;20462;-71
2023/03/20 13:44:39;;;;;;;2.60;1.58;;;18.90;54.70;;;;;;6316750;28;20040;-71
2023/03/20 13:47:40;;;;;;;2.95;1.40;;;18.90;54.70;;;;;;6292111;28;20527;-70
2023/03/20 13:51:09;;;;;;;2.38;1.45;;;18.90;54.70;;;;;;6315192;28;20024;-71
2023/03/20 13:54:33;;;;;;;1.92;1.40;;;18.90;54.70;;;;;;6319541;28;20093;-71
2023/03/20 13:57:53;;;;;;;2.33;1.23;;;18.90;54.70;;;;;;6298401;28;20024;-71
2023/03/20 14:01:06;;;;;;;2.67;1.25;;;18.90;54.70;;;;;;6270546;28;20025;-71
2023/03/20 14:04:17;;;;;;;2.35;1.20;;;18.90;54.70;;;;;;6276633;28;20020;-70
2023/03/20 14:07:30;;;;;;;2.30;1.33;;;18.90;54.70;;;;;;6319983;28;20315;-73
2023/03/20 14:10:35;;;;;;;1.80;1.15;;;18.90;54.60;;;;;;6297700;28;20446;-70
2023/03/20 14:13:36;;;;;;;1.23;0.93;;;18.90;54.70;;;;;;6289521;28;20472;-71
2023/03/20 14:16:37;;;;;;;2.08;1.25;;;18.90;54.70;;;;;;6276644;28;20032;-70
2023/03/20 14:19:38;;;;;;;2.08;1.20;;;18.90;54.60;;;;;;6294571;28;20025;-71
2023/03/20 14:22:39;;;;;;;2.15;1.40;;;18.90;54.70;;;;;;6297157;28;20549;-72
2023/03/20 14:25:42;;;;;;;1.67;1.30;;;18.90;54.60;;;;;;6276363;28;20036;-72
2023/03/20 14:28:53;;;;;;;2.20;1.35;;;18.90;54.60;;;;;;6294363;28;20039;-72
2023/03/20 14:32:04;;;;;;;2.03;1.42;;;18.90;54.60;;;;;;6293856;28;20032;-72
2023/03/20 14:35:26;;;;;;;1.40;1.20;;;18.90;54.60;;;;;;6294614;28;20021;-73
2023/03/20 14:38:34;;;;;;;2.58;1.27;;;18.90;54.60;;;;;;6276836;28;20059;-72
2023/03/20 14:41:46;;;;;;;1.55;1.17;;;18.90;54.60;;;;;;6277276;28;20024;-73
2023/03/20 14:44:59;;;;;;;3.95;1.85;;;18.90;54.60;;;;;;6293845;28;20513;-72
2023/03/20 14:48:24;;;;;;;2.00;1.30;;;18.90;54.60;;;;;;6277010;28;20031;-73
2023/03/20 14:51:45;;;;;;;1.58;1.20;;;18.90;54.60;;;;;;6301323;28;20028;-72
2023/03/20 14:54:54;;;;;;;1.55;1.00;;;18.90;54.70;;;;;;6299518;28;20036;-71
2023/03/20 14:58:01;;;;;;;2.03;1.17;;;18.90;54.70;;;;;;6290843;28;20020;-71
2023/03/20 15:01:07;;;;;;;1.13;0.93;;;18.90;54.60;;;;;;6314233;28;20114;-72
2023/03/20 15:04:21;;;;;;;1.55;0.98;;;18.90;54.60;;;;;;6270370;28;20033;-72
2023/03/20 15:07:26;;;;;;;2.95;1.10;;;18.90;54.90;;;;;;6301720;28;20423;-72
2023/03/20 15:10:27;;;;;;;;;;;19.00;54.70;;;;;;6276687;28;20055;-74
2023/03/20 15:41:00;;;;;;;1.35;0.88;;;19.10;54.30;;;;;;6190139;28;20022;-73
2023/03/20 15:44:18;;;;;;;1.73;1.30;;;19.10;54.10;;;;;;6294482;28;20067;-72
2023/03/20 15:47:23;;;;;;;2.90;1.33;;;19.10;54.20;;;;;;6319497;28;20095;-72
2023/03/20 15:50:25;;;;;;;1.67;1.17;;;19.10;54.20;;;;;;6306838;28;20382;-72
2023/03/20 15:53:35;;;;;;;2.13;0.95;;;19.10;54.30;;;;;;6276243;28;20060;-72
2023/03/20 15:56:41;;;;;;;2.17;1.10;;;19.10;55.00;;;;;;6301163;28;20070;-72
2023/03/20 15:59:50;;;;;;;3.80;1.20;;;19.10;54.40;;;;;;6305710;28;20020;-73
2023/03/20 16:02:51;;;;;;;2.50;1.25;;;19.00;54.40;;;;;;6324015;28;20020;-70
2023/03/20 16:05:53;;;;;;;1.60;1.00;;;19.10;54.60;;;;;;6322441;28;20028;-70
2023/03/20 16:09:00;;;;;;;1.20;1.00;;;19.00;54.50;;;;;;6305528;28;20028;-69
2023/03/20 16:12:15;;;;;;;1.67;1.00;;;19.00;54.50;;;;;;6300716;28;20052;-73
2023/03/20 16:15:17;;;;;;;1.55;1.17;;;19.00;54.50;;;;;;6304920;28;20117;-72
2023/03/20 16:18:18;;;;;;;1.23;1.13;;;19.00;54.50;;;;;;6303102;28;20048;-72
2023/03/20 16:21:43;;;;;;;1.30;0.90;;;19.00;54.50;;;;;;6280117;28;20550;-72
2023/03/20 16:24:50;;;;;;;1.48;0.98;;;19.00;54.60;;;;;;6297770;28;20025;-73
2023/03/20 16:27:53;;;;;;;2.42;1.08;;;19.00;54.50;;;;;;6297696;28;20078;-72
2023/03/20 16:31:08;;;;;;;1.30;0.90;;;19.00;54.60;;;;;;6297164;28;20039;-73
2023/03/20 16:34:19;;;;;;;2.05;1.00;;;19.00;54.50;;;;;;6279613;28;20481;-72
2023/03/20 16:37:30;;;;;;;2.00;1.10;;;19.00;54.60;;;;;;6314595;28;20021;-72
2023/03/20 16:40:34;;;;;;;1.60;1.08;;;19.00;54.60;;;;;;6300989;28;20095;-72
2023/03/20 16:43:37;;;;;;;1.40;0.95;;;19.00;54.60;;;;;;6322717;28;20040;-71